Cabo Rojo, Puerto Rico
Current Conditions -  °F | °C
As of 3:50 PM on Monday 26 Jan 2015 (Local Time) from TJBQ Reporting Station
Overcast Overcast  
Wind Chill: 81°   Ceiling: 3000
Heat Index: 85°   Visibility: 10mi
Dew Point: 72°   Wind: 8mph
Humidity: 74%   Direction: 70°ENE
Pressure: 29.96"   Gusts: NA
Location:  18.09°N, 67.15°W
Report Text: TJBQ 261950Z 07007KT 10SM BKN030 OVC070 27/22 A2996 RMK RWY08 ATIS L
Loading
Personal Weather Stations






























Interactive Weather Map New forecast layout! Learn more

10-Day Weather Forecast

Advertisements
Track Severe Weather on mobile